Island Venture — WDG3765 — position and weather

sailwx.info

Track history (hours):
 
Tides and Currents Weather Stations Pressure Air Temp Water Temp Dewpoint Dewpoint Depression Visibility Wind Speed Wind Dir Waves Ship Positions

Island Venture

Owner: Island Tug and Barge, Seattle, WA. More information available from US FCC via Universal Licensing System and Coast Guard Vessel Documentation Center.

Last reported at 2016-May-02 07:21 UTC. Time now 2016-May-02 10:42 UTC.
Position N 47°11' W 122°50'.

Type: Tug. MMSI: 367529420.

Date/timePositionNaut miles runAvg speedWind from/ knotsBaromVisibWave heightAir tempDewpointWater temp
2016-May-02 07:21N 47°11' W 122°50'7 5.9
2016-May-02 06:12N 47°07' W 122°42'5 6.3
2016-May-02 05:24N 47°11' W 122°38'8 9.1
2016-May-02 04:33N 47°19' W 122°33'8 8.5
2016-May-02 03:33N 47°27' W 122°31'9 8.6
2016-May-02 02:32N 47°35' W 122°26'3 3.1
2016-May-02 01:33N 47°34' W 122°21'0 0.2
2016-May-02 00:33N 47°34' W 122°21'0 0.0
2016-May-01 23:33N 47°34' W 122°21'0 0.0
2016-May-01 22:33N 47°34' W 122°21'0 0.0
2016-May-01 21:33N 47°34' W 122°21'0 0.0
2016-May-01 20:34N 47°34' W 122°21'0 0.0
2016-May-01 19:33N 47°34' W 122°21'0 0.0
2016-May-01 18:33N 47°34' W 122°21'0 0.0
2016-May-01 17:33N 47°34' W 122°21'0 0.0
2016-May-01 16:33N 47°34' W 122°21'0 0.0
2016-May-01 15:33N 47°34' W 122°21'0 0.0
2016-May-01 14:33N 47°34' W 122°21'0 0.0
2016-May-01 13:33N 47°34' W 122°21'0 0.0
2016-Apr-29 22:07N 47°34' W 122°21'0 0.0
2016-Apr-29 21:33N 47°34' W 122°21'0 0.0
2016-Apr-29 20:33N 47°34' W 122°21'0 0.0
2016-Apr-29 19:33N 47°34' W 122°21'0 0.0
2016-Apr-29 18:33N 47°34' W 122°21'0 0.4
2016-Apr-29 17:33N 47°34' W 122°21'2 1.8
2016-Apr-29 16:32N 47°32' W 122°20'1 1.3
2016-Apr-29 15:33N 47°34' W 122°21'0 0.0
2016-Apr-29 14:33N 47°34' W 122°21'0 0.4
2016-Apr-29 13:33N 47°34' W 122°21'2 1.8
2016-Apr-29 12:33N 47°36' W 122°22'2 1.7
2016-Apr-29 11:33N 47°36' W 122°24'4 4.5
2016-Apr-29 10:33N 47°32' W 122°28'4 3.9
2016-Apr-29 09:33N 47°28' W 122°31'4 4.2
2016-Apr-29 08:33N 47°24' W 122°32'4 3.9
2016-Apr-29 07:33N 47°20' W 122°33'5 4.6
2016-Apr-29 06:33N 47°16' W 122°33'5 4.7
2016-Apr-29 05:33N 47°12' W 122°37'1 0.1
2016-Apr-28 23:31N 47°12' W 122°36'7 7.5
2016-Apr-28 22:33N 47°19' W 122°34'8 7.5
2016-Apr-28 21:33N 47°26' W 122°31'8 8.2
2016-Apr-28 20:33N 47°34' W 122°27'4 4.0
2016-Apr-28 19:33N 47°34' W 122°21'1 0.6
2016-Apr-28 18:33N 47°34' W 122°21'0 0.1
2016-Apr-28 17:33N 47°34' W 122°21'0 0.0
2016-Apr-28 16:33N 47°34' W 122°21'0 0.0
2016-Apr-28 15:33N 47°34' W 122°21'0 0.2
2016-Apr-28 14:33N 47°35' W 122°22'2 2.0
2016-Apr-28 13:33N 47°33' W 122°20'3 3.1
2016-Apr-28 12:33N 47°36' W 122°22'5 5.1
2016-Apr-28 11:33N 47°32' W 122°28'17 0.7
2016-Apr-27 10:26N 47°16' W 122°33'6 6.3
2016-Apr-27 09:33N 47°21' W 122°32'7 7.0
2016-Apr-27 08:33N 47°28' W 122°31'7 7.2
2016-Apr-27 07:33N 47°35' W 122°26'2 2.4
2016-Apr-27 06:33N 47°35' W 122°22'1 1.5
2016-Apr-27 05:33N 47°34' W 122°21'1 0.6
2016-Apr-27 04:33N 47°34' W 122°21'1 0.7
2016-Apr-27 03:33N 47°35' W 122°22'3 2.1
2016-Apr-27 02:22N 47°33' W 122°20'1 1.5
2016-Apr-27 01:33N 47°34' W 122°21'1 0.8
2016-Apr-27 00:33N 47°34' W 122°22'1 0.9
2016-Apr-26 23:33N 47°34' W 122°21'1 0.9
2016-Apr-26 22:33N 47°34' W 122°21'0 0.0
2016-Apr-26 21:33N 47°34' W 122°22'0 0.0
2016-Apr-26 20:33N 47°34' W 122°22'0 0.1
2016-Apr-26 19:34N 47°34' W 122°21'0 0.0
2016-Apr-26 18:33N 47°34' W 122°21'0 0.1
2016-Apr-26 17:33N 47°34' W 122°21'0 0.1
2016-Apr-26 16:33N 47°34' W 122°21'0 0.0
2016-Apr-26 15:33N 47°34' W 122°21'0 0.0
2016-Apr-26 14:33N 47°34' W 122°21'0 0.3
2016-Apr-26 13:33N 47°34' W 122°21'0 0.3
2016-Apr-26 12:33N 47°34' W 122°21'2 1.8
2016-Apr-26 11:33N 47°33' W 122°20'3 2.7
2016-Apr-26 10:33N 47°35' W 122°22'5 4.7
2016-Apr-26 09:33N 47°33' W 122°28'8 8.0
2016-Apr-26 08:33N 47°25' W 122°31'8 8.4
2016-Apr-26 07:33N 47°17' W 122°33'6 0.3
2016-Apr-25 10:06N 47°12' W 122°37'5 7.6
2016-Apr-25 09:25N 47°16' W 122°33'6 6.6
2016-Apr-25 08:33N 47°22' W 122°32'7 6.9
2016-Apr-25 07:33N 47°29' W 122°31'7 7.0
2016-Apr-25 06:33N 47°35' W 122°26'2 2.3
2016-Apr-25 05:33N 47°35' W 122°22'0 0.0
2016-Apr-25 04:33N 47°35' W 122°22'0 0.0
2016-Apr-25 03:33N 47°35' W 122°22'0 0.1
2016-Apr-25 02:33N 47°35' W 122°22'1 0.8
2016-Apr-25 01:33N 47°34' W 122°22'1 0.8
2016-Apr-25 00:33N 47°34' W 122°21'0 0.5
2016-Apr-24 23:33N 47°34' W 122°21'7 6.8
2016-Apr-24 22:33N 47°40' W 122°26'3 2.8
2016-Apr-24 21:33N 47°40' W 122°22'1 1.0
2016-Apr-24 20:33N 47°40' W 122°24'0 0.5
2016-Apr-24 19:33N 47°40' W 122°24'2 2.0
2016-Apr-24 18:33N 47°39' W 122°27'5 4.7
2016-Apr-24 17:33N 47°35' W 122°22'2 1.6
2016-Apr-24 16:33N 47°34' W 122°21'3 3.3
2016-Apr-24 15:33N 47°35' W 122°25'3 3.4
2016-Apr-24 14:34N 47°33' W 122°29'0 0.1
2016-Apr-24 13:33N 47°33' W 122°29'0 0.0
2016-Apr-24 12:33N 47°33' W 122°29'0 0.0
2016-Apr-24 11:33N 47°33' W 122°29'3 3.3
2016-Apr-24 10:33N 47°35' W 122°25'3 2.8
2016-Apr-24 09:33N 47°34' W 122°21'0 0.0
2016-Apr-24 08:33N 47°34' W 122°21'0 0.0
2016-Apr-24 07:33N 47°34' W 122°21'0 0.0
2016-Apr-24 06:33N 47°34' W 122°21'0 0.0
2016-Apr-24 05:33N 47°34' W 122°21'0 0.0
2016-Apr-24 04:33N 47°34' W 122°21'0 0.0
2016-Apr-24 03:33N 47°34' W 122°21'0 0.0
2016-Apr-24 02:33N 47°34' W 122°21'0 0.0
2016-Apr-24 01:33N 47°34' W 122°21'0 0.0
2016-Apr-24 00:33N 47°34' W 122°21'0 0.0
2016-Apr-23 23:33N 47°34' W 122°21'0 0.0
2016-Apr-23 22:33N 47°34' W 122°21'0 0.0
2016-Apr-23 21:33N 47°34' W 122°21'0 0.0
2016-Apr-23 20:33N 47°34' W 122°21'0 0.0
2016-Apr-23 19:33N 47°34' W 122°21'0 0.0
2016-Apr-23 18:33N 47°34' W 122°21'0 0.0
2016-Apr-23 17:33N 47°34' W 122°21'0 0.0
2016-Apr-23 16:33N 47°34' W 122°21'0 0.0
2016-Apr-23 15:33N 47°34' W 122°21'0 0.0
2016-Apr-23 14:33N 47°34' W 122°21'0 0.0
2016-Apr-23 13:33N 47°34' W 122°21'0 0.0
2016-Apr-23 12:34N 47°34' W 122°21'0 0.0
2016-Apr-23 11:33N 47°34' W 122°21'0 0.0
2016-Apr-23 10:33N 47°34' W 122°21'0 0.0
2016-Apr-23 09:33N 47°34' W 122°21'0 0.0
2016-Apr-23 08:33N 47°34' W 122°21'0 0.0
2016-Apr-23 07:33N 47°34' W 122°21'0 0.0
2016-Apr-23 06:33N 47°34' W 122°21'0 0.0
2016-Apr-23 05:33N 47°34' W 122°21'2 1.9
2016-Apr-23 04:33N 47°33' W 122°20'4 3.7
2016-Apr-23 03:33N 47°36' W 122°23'2 2.3
2016-Apr-23 02:33N 47°34' W 122°21'4 3.6
2016-Apr-23 01:33N 47°34' W 122°26'7 6.6
2016-Apr-23 00:33N 47°28' W 122°31'7 6.6
2016-Apr-22 23:33N 47°22' W 122°32'4 4.0
2016-Apr-22 22:33N 47°18' W 122°33'2 2.1
2016-Apr-22 21:33N 47°16' W 122°33'5 4.9
2016-Apr-22 20:33N 47°12' W 122°37'2 0.4
2016-Apr-22 14:15N 47°10' W 122°39'5 7.0
2016-Apr-22 13:28N 47°14' W 122°34'7 7.5
2016-Apr-22 12:33N 47°21' W 122°33'7 7.4
2016-Apr-22 11:33N 47°28' W 122°31'8 7.5
2016-Apr-22 10:33N 47°35' W 122°25'3 3.4
2016-Apr-22 09:33N 47°34' W 122°21'0 0.4
2016-Apr-22 08:33N 47°34' W 122°21'3 2.6
2016-Apr-22 07:33N 47°36' W 122°24'  
Track history (hours):
 
Tides and Currents Weather Stations Pressure Air Temp Water Temp Dewpoint Dewpoint Depression Visibility Wind Speed Wind Dir Waves Ship Positions

Island Venture

Owner: Island Tug and Barge, Seattle, WA. More information available from US FCC via Universal Licensing System and Coast Guard Vessel Documentation Center.

Last reported at 2016-May-02 07:21 UTC. Time now 2016-May-02 10:42 UTC.
Position N 47°11' W 122°50'.

Type: Tug. MMSI: 367529420.

Date/timePositionNaut miles runAvg speedWind from/ knotsBaromVisibWave heightAir tempDewpointWater temp
2016-May-02 07:21N 47°11' W 122°50'7 5.9
2016-May-02 06:12N 47°07' W 122°42'5 6.3
2016-May-02 05:24N 47°11' W 122°38'8 9.1
2016-May-02 04:33N 47°19' W 122°33'8 8.5
2016-May-02 03:33N 47°27' W 122°31'9 8.6
2016-May-02 02:32N 47°35' W 122°26'3 3.1
2016-May-02 01:33N 47°34' W 122°21'0 0.2
2016-May-02 00:33N 47°34' W 122°21'0 0.0
2016-May-01 23:33N 47°34' W 122°21'0 0.0
2016-May-01 22:33N 47°34' W 122°21'0 0.0
2016-May-01 21:33N 47°34' W 122°21'0 0.0
2016-May-01 20:34N 47°34' W 122°21'0 0.0
2016-May-01 19:33N 47°34' W 122°21'0 0.0
2016-May-01 18:33N 47°34' W 122°21'0 0.0
2016-May-01 17:33N 47°34' W 122°21'0 0.0
2016-May-01 16:33N 47°34' W 122°21'0 0.0
2016-May-01 15:33N 47°34' W 122°21'0 0.0
2016-May-01 14:33N 47°34' W 122°21'0 0.0
2016-May-01 13:33N 47°34' W 122°21'0 0.0
2016-Apr-29 22:07N 47°34' W 122°21'0 0.0
2016-Apr-29 21:33N 47°34' W 122°21'0 0.0
2016-Apr-29 20:33N 47°34' W 122°21'0 0.0
2016-Apr-29 19:33N 47°34' W 122°21'0 0.0
2016-Apr-29 18:33N 47°34' W 122°21'0 0.4
2016-Apr-29 17:33N 47°34' W 122°21'2 1.8
2016-Apr-29 16:32N 47°32' W 122°20'1 1.3
2016-Apr-29 15:33N 47°34' W 122°21'0 0.0
2016-Apr-29 14:33N 47°34' W 122°21'0 0.4
2016-Apr-29 13:33N 47°34' W 122°21'2 1.8
2016-Apr-29 12:33N 47°36' W 122°22'2 1.7
2016-Apr-29 11:33N 47°36' W 122°24'4 4.5
2016-Apr-29 10:33N 47°32' W 122°28'4 3.9
2016-Apr-29 09:33N 47°28' W 122°31'4 4.2
2016-Apr-29 08:33N 47°24' W 122°32'4 3.9
2016-Apr-29 07:33N 47°20' W 122°33'5 4.6
2016-Apr-29 06:33N 47°16' W 122°33'5 4.7
2016-Apr-29 05:33N 47°12' W 122°37'1 0.1
2016-Apr-28 23:31N 47°12' W 122°36'7 7.5
2016-Apr-28 22:33N 47°19' W 122°34'8 7.5
2016-Apr-28 21:33N 47°26' W 122°31'8 8.2
2016-Apr-28 20:33N 47°34' W 122°27'4 4.0
2016-Apr-28 19:33N 47°34' W 122°21'1 0.6
2016-Apr-28 18:33N 47°34' W 122°21'0 0.1
2016-Apr-28 17:33N 47°34' W 122°21'0 0.0
2016-Apr-28 16:33N 47°34' W 122°21'0 0.0
2016-Apr-28 15:33N 47°34' W 122°21'0 0.2
2016-Apr-28 14:33N 47°35' W 122°22'2 2.0
2016-Apr-28 13:33N 47°33' W 122°20'3 3.1
2016-Apr-28 12:33N 47°36' W 122°22'5 5.1
2016-Apr-28 11:33N 47°32' W 122°28'17 0.7
2016-Apr-27 10:26N 47°16' W 122°33'6 6.3
2016-Apr-27 09:33N 47°21' W 122°32'7 7.0
2016-Apr-27 08:33N 47°28' W 122°31'7 7.2
2016-Apr-27 07:33N 47°35' W 122°26'2 2.4
2016-Apr-27 06:33N 47°35' W 122°22'1 1.5
2016-Apr-27 05:33N 47°34' W 122°21'1 0.6
2016-Apr-27 04:33N 47°34' W 122°21'1 0.7
2016-Apr-27 03:33N 47°35' W 122°22'3 2.1
2016-Apr-27 02:22N 47°33' W 122°20'1 1.5
2016-Apr-27 01:33N 47°34' W 122°21'1 0.8
2016-Apr-27 00:33N 47°34' W 122°22'1 0.9
2016-Apr-26 23:33N 47°34' W 122°21'1 0.9
2016-Apr-26 22:33N 47°34' W 122°21'0 0.0
2016-Apr-26 21:33N 47°34' W 122°22'0 0.0
2016-Apr-26 20:33N 47°34' W 122°22'0 0.1
2016-Apr-26 19:34N 47°34' W 122°21'0 0.0
2016-Apr-26 18:33N 47°34' W 122°21'0 0.1
2016-Apr-26 17:33N 47°34' W 122°21'0 0.1
2016-Apr-26 16:33N 47°34' W 122°21'0 0.0
2016-Apr-26 15:33N 47°34' W 122°21'0 0.0
2016-Apr-26 14:33N 47°34' W 122°21'0 0.3
2016-Apr-26 13:33N 47°34' W 122°21'0 0.3
2016-Apr-26 12:33N 47°34' W 122°21'2 1.8
2016-Apr-26 11:33N 47°33' W 122°20'3 2.7
2016-Apr-26 10:33N 47°35' W 122°22'5 4.7
2016-Apr-26 09:33N 47°33' W 122°28'8 8.0
2016-Apr-26 08:33N 47°25' W 122°31'8 8.4
2016-Apr-26 07:33N 47°17' W 122°33'6 0.3
2016-Apr-25 10:06N 47°12' W 122°37'5 7.6
2016-Apr-25 09:25N 47°16' W 122°33'6 6.6
2016-Apr-25 08:33N 47°22' W 122°32'7 6.9
2016-Apr-25 07:33N 47°29' W 122°31'7 7.0
2016-Apr-25 06:33N 47°35' W 122°26'2 2.3
2016-Apr-25 05:33N 47°35' W 122°22'0 0.0
2016-Apr-25 04:33N 47°35' W 122°22'0 0.0
2016-Apr-25 03:33N 47°35' W 122°22'0 0.1
2016-Apr-25 02:33N 47°35' W 122°22'1 0.8
2016-Apr-25 01:33N 47°34' W 122°22'1 0.8
2016-Apr-25 00:33N 47°34' W 122°21'0 0.5
2016-Apr-24 23:33N 47°34' W 122°21'7 6.8
2016-Apr-24 22:33N 47°40' W 122°26'3 2.8
2016-Apr-24 21:33N 47°40' W 122°22'1 1.0
2016-Apr-24 20:33N 47°40' W 122°24'0 0.5
2016-Apr-24 19:33N 47°40' W 122°24'2 2.0
2016-Apr-24 18:33N 47°39' W 122°27'5 4.7
2016-Apr-24 17:33N 47°35' W 122°22'2 1.6
2016-Apr-24 16:33N 47°34' W 122°21'3 3.3
2016-Apr-24 15:33N 47°35' W 122°25'3 3.4
2016-Apr-24 14:34N 47°33' W 122°29'0 0.1
2016-Apr-24 13:33N 47°33' W 122°29'0 0.0
2016-Apr-24 12:33N 47°33' W 122°29'0 0.0
2016-Apr-24 11:33N 47°33' W 122°29'3 3.3
2016-Apr-24 10:33N 47°35' W 122°25'3 2.8
2016-Apr-24 09:33N 47°34' W 122°21'0 0.0
2016-Apr-24 08:33N 47°34' W 122°21'0 0.0
2016-Apr-24 07:33N 47°34' W 122°21'0 0.0
2016-Apr-24 06:33N 47°34' W 122°21'0 0.0
2016-Apr-24 05:33N 47°34' W 122°21'0 0.0
2016-Apr-24 04:33N 47°34' W 122°21'0 0.0
2016-Apr-24 03:33N 47°34' W 122°21'0 0.0
2016-Apr-24 02:33N 47°34' W 122°21'0 0.0
2016-Apr-24 01:33N 47°34' W 122°21'0 0.0
2016-Apr-24 00:33N 47°34' W 122°21'0 0.0
2016-Apr-23 23:33N 47°34' W 122°21'0 0.0
2016-Apr-23 22:33N 47°34' W 122°21'0 0.0
2016-Apr-23 21:33N 47°34' W 122°21'0 0.0
2016-Apr-23 20:33N 47°34' W 122°21'0 0.0
2016-Apr-23 19:33N 47°34' W 122°21'0 0.0
2016-Apr-23 18:33N 47°34' W 122°21'0 0.0
2016-Apr-23 17:33N 47°34' W 122°21'0 0.0
2016-Apr-23 16:33N 47°34' W 122°21'0 0.0
2016-Apr-23 15:33N 47°34' W 122°21'0 0.0
2016-Apr-23 14:33N 47°34' W 122°21'0 0.0
2016-Apr-23 13:33N 47°34' W 122°21'0 0.0
2016-Apr-23 12:34N 47°34' W 122°21'0 0.0
2016-Apr-23 11:33N 47°34' W 122°21'0 0.0
2016-Apr-23 10:33N 47°34' W 122°21'0 0.0
2016-Apr-23 09:33N 47°34' W 122°21'0 0.0
2016-Apr-23 08:33N 47°34' W 122°21'0 0.0
2016-Apr-23 07:33N 47°34' W 122°21'0 0.0
2016-Apr-23 06:33N 47°34' W 122°21'0 0.0
2016-Apr-23 05:33N 47°34' W 122°21'2 1.9
2016-Apr-23 04:33N 47°33' W 122°20'4 3.7
2016-Apr-23 03:33N 47°36' W 122°23'2 2.3
2016-Apr-23 02:33N 47°34' W 122°21'4 3.6
2016-Apr-23 01:33N 47°34' W 122°26'7 6.6
2016-Apr-23 00:33N 47°28' W 122°31'7 6.6
2016-Apr-22 23:33N 47°22' W 122°32'4 4.0
2016-Apr-22 22:33N 47°18' W 122°33'2 2.1
2016-Apr-22 21:33N 47°16' W 122°33'5 4.9
2016-Apr-22 20:33N 47°12' W 122°37'2 0.4
2016-Apr-22 14:15N 47°10' W 122°39'5 7.0
2016-Apr-22 13:28N 47°14' W 122°34'7 7.5
2016-Apr-22 12:33N 47°21' W 122°33'7 7.4
2016-Apr-22 11:33N 47°28' W 122°31'8 7.5
2016-Apr-22 10:33N 47°35' W 122°25'3 3.4
2016-Apr-22 09:33N 47°34' W 122°21'0 0.4
2016-Apr-22 08:33N 47°34' W 122°21'3 2.6
2016-Apr-22 07:33N 47°36' W 122°24'  

Dump ship's entire track history